sensor_id;sensor_type;location;lat;lon;timestamp;P1;durP1;ratioP1;P2;durP2;ratioP2
2107;SDS011;1060;52.492;13.388;2023-12-20T00:01:07;10.10;;;9.10;;
2107;SDS011;1060;52.492;13.388;2023-12-20T00:03:33;11.80;;;10.70;;
2107;SDS011;1060;52.492;13.388;2023-12-20T00:06:00;10.23;;;9.33;;
2107;SDS011;1060;52.492;13.388;2023-12-20T00:08:26;12.63;;;11.40;;
2107;SDS011;1060;52.492;13.388;2023-12-20T00:10:52;10.77;;;9.67;;
2107;SDS011;1060;52.492;13.388;2023-12-20T00:13:18;12.40;;;11.10;;
2107;SDS011;1060;52.492;13.388;2023-12-20T00:15:44;11.33;;;9.43;;
2107;SDS011;1060;52.492;13.388;2023-12-20T00:18:13;12.07;;;10.87;;
2107;SDS011;1060;52.492;13.388;2023-12-20T00:20:39;12.40;;;11.10;;
2107;SDS011;1060;52.492;13.388;2023-12-20T00:23:06;12.20;;;11.10;;
2107;SDS011;1060;52.492;13.388;2023-12-20T00:25:33;11.00;;;10.00;;
2107;SDS011;1060;52.492;13.388;2023-12-20T00:28:00;9.73;;;8.80;;
2107;SDS011;1060;52.492;13.388;2023-12-20T00:30:27;11.23;;;9.90;;
2107;SDS011;1060;52.492;13.388;2023-12-20T00:32:53;9.07;;;8.17;;
2107;SDS011;1060;52.492;13.388;2023-12-20T00:35:20;11.97;;;10.80;;
2107;SDS011;1060;52.492;13.388;2023-12-20T00:37:46;9.67;;;8.87;;
2107;SDS011;1060;52.492;13.388;2023-12-20T00:40:12;10.73;;;9.63;;
2107;SDS011;1060;52.492;13.388;2023-12-20T00:42:38;10.33;;;9.33;;
2107;SDS011;1060;52.492;13.388;2023-12-20T00:45:05;10.07;;;8.47;;
2107;SDS011;1060;52.492;13.388;2023-12-20T00:47:31;10.17;;;9.13;;
2107;SDS011;1060;52.492;13.388;2023-12-20T00:49:57;10.23;;;9.23;;
2107;SDS011;1060;52.492;13.388;2023-12-20T00:52:24;10.33;;;9.33;;
2107;SDS011;1060;52.492;13.388;2023-12-20T00:54:50;10.43;;;9.43;;
2107;SDS011;1060;52.492;13.388;2023-12-20T00:57:19;9.17;;;8.33;;
2107;SDS011;1060;52.492;13.388;2023-12-20T00:59:45;10.67;;;9.70;;
2107;SDS011;1060;52.492;13.388;2023-12-20T01:02:11;10.23;;;8.73;;
2107;SDS011;1060;52.492;13.388;2023-12-20T01:04:38;9.90;;;8.87;;
2107;SDS011;1060;52.492;13.388;2023-12-20T01:07:04;9.23;;;8.33;;
2107;SDS011;1060;52.492;13.388;2023-12-20T01:09:30;8.60;;;7.80;;
2107;SDS011;1060;52.492;13.388;2023-12-20T01:11:56;9.20;;;8.37;;
2107;SDS011;1060;52.492;13.388;2023-12-20T01:14:23;10.30;;;9.20;;
2107;SDS011;1060;52.492;13.388;2023-12-20T01:16:49;9.73;;;8.83;;
2107;SDS011;1060;52.492;13.388;2023-12-20T01:19:15;11.90;;;10.73;;
2107;SDS011;1060;52.492;13.388;2023-12-20T01:21:44;11.10;;;10.10;;
2107;SDS011;1060;52.492;13.388;2023-12-20T01:24:10;9.80;;;8.80;;
2107;SDS011;1060;52.492;13.388;2023-12-20T01:26:36;11.03;;;10.03;;
2107;SDS011;1060;52.492;13.388;2023-12-20T01:29:02;10.87;;;9.80;;
2107;SDS011;1060;52.492;13.388;2023-12-20T01:31:29;11.93;;;10.77;;
2107;SDS011;1060;52.492;13.388;2023-12-20T01:33:55;13.30;;;11.90;;
2107;SDS011;1060;52.492;13.388;2023-12-20T01:36:21;9.80;;;8.90;;
2107;SDS011;1060;52.492;13.388;2023-12-20T01:38:50;9.57;;;8.70;;
2107;SDS011;1060;52.492;13.388;2023-12-20T01:41:19;10.20;;;9.20;;
2107;SDS011;1060;52.492;13.388;2023-12-20T01:43:45;10.17;;;9.17;;
2107;SDS011;1060;52.492;13.388;2023-12-20T01:46:11;9.07;;;8.27;;
2107;SDS011;1060;52.492;13.388;2023-12-20T01:48:37;9.77;;;8.83;;
2107;SDS011;1060;52.492;13.388;2023-12-20T01:51:04;8.60;;;7.80;;
2107;SDS011;1060;52.492;13.388;2023-12-20T01:53:30;9.67;;;8.73;;
2107;SDS011;1060;52.492;13.388;2023-12-20T01:55:57;9.63;;;8.73;;
2107;SDS011;1060;52.492;13.388;2023-12-20T01:58:24;9.93;;;8.90;;
2107;SDS011;1060;52.492;13.388;2023-12-20T02:00:53;8.47;;;7.67;;
2107;SDS011;1060;52.492;13.388;2023-12-20T02:03:20;8.23;;;7.50;;
2107;SDS011;1060;52.492;13.388;2023-12-20T02:05:46;9.20;;;8.30;;
2107;SDS011;1060;52.492;13.388;2023-12-20T02:08:13;11.90;;;10.70;;
2107;SDS011;1060;52.492;13.388;2023-12-20T02:10:39;10.30;;;9.20;;
2107;SDS011;1060;52.492;13.388;2023-12-20T02:13:06;11.73;;;10.17;;
2107;SDS011;1060;52.492;13.388;2023-12-20T02:15:32;8.27;;;7.57;;
2107;SDS011;1060;52.492;13.388;2023-12-20T02:17:58;10.27;;;9.30;;
2107;SDS011;1060;52.492;13.388;2023-12-20T02:20:27;11.93;;;10.63;;
2107;SDS011;1060;52.492;13.388;2023-12-20T02:22:53;9.47;;;7.87;;
2107;SDS011;1060;52.492;13.388;2023-12-20T02:25:19;8.50;;;7.70;;
2107;SDS011;1060;52.492;13.388;2023-12-20T02:27:46;11.03;;;10.13;;
2107;SDS011;1060;52.492;13.388;2023-12-20T02:30:12;9.40;;;8.50;;
2107;SDS011;1060;52.492;13.388;2023-12-20T02:32:38;8.20;;;7.40;;
2107;SDS011;1060;52.492;13.388;2023-12-20T02:35:04;7.57;;;6.77;;
2107;SDS011;1060;52.492;13.388;2023-12-20T02:37:31;11.60;;;10.13;;
2107;SDS011;1060;52.492;13.388;2023-12-20T02:39:58;9.23;;;8.27;;
2107;SDS011;1060;52.492;13.388;2023-12-20T02:42:24;9.93;;;8.97;;
2107;SDS011;1060;52.492;13.388;2023-12-20T02:44:50;10.30;;;8.87;;
2107;SDS011;1060;52.492;13.388;2023-12-20T02:47:16;11.30;;;9.00;;
2107;SDS011;1060;52.492;13.388;2023-12-20T02:49:42;12.27;;;11.13;;
2107;SDS011;1060;52.492;13.388;2023-12-20T02:52:09;10.20;;;9.20;;
2107;SDS011;1060;52.492;13.388;2023-12-20T02:54:35;12.23;;;10.67;;
2107;SDS011;1060;52.492;13.388;2023-12-20T02:57:01;11.53;;;10.33;;
2107;SDS011;1060;52.492;13.388;2023-12-20T02:59:27;10.63;;;9.67;;
2107;SDS011;1060;52.492;13.388;2023-12-20T03:01:54;13.90;;;11.47;;
2107;SDS011;1060;52.492;13.388;2023-12-20T03:04:20;12.60;;;11.30;;
2107;SDS011;1060;52.492;13.388;2023-12-20T03:06:46;13.57;;;12.13;;
2107;SDS011;1060;52.492;13.388;2023-12-20T03:09:12;12.63;;;11.37;;
2107;SDS011;1060;52.492;13.388;2023-12-20T03:11:38;14.60;;;10.53;;
2107;SDS011;1060;52.492;13.388;2023-12-20T03:14:05;14.40;;;11.23;;
2107;SDS011;1060;52.492;13.388;2023-12-20T03:16:31;14.83;;;13.20;;
2107;SDS011;1060;52.492;13.388;2023-12-20T03:18:58;12.60;;;9.43;;
2107;SDS011;1060;52.492;13.388;2023-12-20T03:21:24;16.63;;;9.37;;
2107;SDS011;1060;52.492;13.388;2023-12-20T03:23:50;10.90;;;8.03;;
2107;SDS011;1060;52.492;13.388;2023-12-20T03:26:16;10.73;;;9.53;;
2107;SDS011;1060;52.492;13.388;2023-12-20T03:28:43;12.43;;;9.30;;
2107;SDS011;1060;52.492;13.388;2023-12-20T03:31:09;10.40;;;8.80;;
2107;SDS011;1060;52.492;13.388;2023-12-20T03:33:36;10.70;;;8.40;;
2107;SDS011;1060;52.492;13.388;2023-12-20T03:36:02;9.43;;;7.53;;
2107;SDS011;1060;52.492;13.388;2023-12-20T03:38:28;11.80;;;7.63;;
2107;SDS011;1060;52.492;13.388;2023-12-20T03:40:54;7.83;;;7.03;;
2107;SDS011;1060;52.492;13.388;2023-12-20T03:43:20;10.90;;;6.03;;
2107;SDS011;1060;52.492;13.388;2023-12-20T03:45:46;13.10;;;6.47;;
2107;SDS011;1060;52.492;13.388;2023-12-20T03:48:13;7.47;;;5.63;;
2107;SDS011;1060;52.492;13.388;2023-12-20T03:50:39;5.37;;;4.67;;
2107;SDS011;1060;52.492;13.388;2023-12-20T03:53:05;11.10;;;6.60;;
2107;SDS011;1060;52.492;13.388;2023-12-20T03:55:31;9.37;;;5.53;;
2107;SDS011;1060;52.492;13.388;2023-12-20T03:57:57;5.00;;;4.20;;
2107;SDS011;1060;52.492;13.388;2023-12-20T04:00:23;8.17;;;5.60;;
2107;SDS011;1060;52.492;13.388;2023-12-20T04:02:49;12.73;;;5.73;;
2107;SDS011;1060;52.492;13.388;2023-12-20T04:05:15;9.90;;;5.00;;
2107;SDS011;1060;52.492;13.388;2023-12-20T04:07:42;5.53;;;4.73;;
2107;SDS011;1060;52.492;13.388;2023-12-20T04:10:09;7.57;;;4.03;;
2107;SDS011;1060;52.492;13.388;2023-12-20T04:12:38;6.50;;;3.67;;
2107;SDS011;1060;52.492;13.388;2023-12-20T04:15:04;6.63;;;4.93;;
2107;SDS011;1060;52.492;13.388;2023-12-20T04:17:34;6.13;;;3.90;;
2107;SDS011;1060;52.492;13.388;2023-12-20T04:20:03;11.43;;;4.30;;
2107;SDS011;1060;52.492;13.388;2023-12-20T04:22:32;5.63;;;3.97;;
2107;SDS011;1060;52.492;13.388;2023-12-20T04:24:58;11.97;;;3.63;;
2107;SDS011;1060;52.492;13.388;2023-12-20T04:27:24;4.27;;;3.40;;
2107;SDS011;1060;52.492;13.388;2023-12-20T04:29:51;9.23;;;4.13;;
2107;SDS011;1060;52.492;13.388;2023-12-20T04:32:17;5.20;;;4.00;;
2107;SDS011;1060;52.492;13.388;2023-12-20T04:34:43;4.07;;;3.47;;
2107;SDS011;1060;52.492;13.388;2023-12-20T04:37:09;9.90;;;3.67;;
2107;SDS011;1060;52.492;13.388;2023-12-20T04:39:35;6.60;;;4.00;;
2107;SDS011;1060;52.492;13.388;2023-12-20T04:42:02;5.47;;;2.97;;
2107;SDS011;1060;52.492;13.388;2023-12-20T04:44:28;14.33;;;4.17;;
2107;SDS011;1060;52.492;13.388;2023-12-20T04:46:54;11.13;;;4.17;;
2107;SDS011;1060;52.492;13.388;2023-12-20T04:49:29;2.70;;;2.30;;
2107;SDS011;1060;52.492;13.388;2023-12-20T04:51:55;5.60;;;3.40;;
2107;SDS011;1060;52.492;13.388;2023-12-20T04:54:21;6.60;;;3.97;;
2107;SDS011;1060;52.492;13.388;2023-12-20T04:56:47;5.40;;;3.20;;
2107;SDS011;1060;52.492;13.388;2023-12-20T04:59:16;4.67;;;3.93;;
2107;SDS011;1060;52.492;13.388;2023-12-20T05:01:42;8.20;;;4.30;;
2107;SDS011;1060;52.492;13.388;2023-12-20T05:04:08;9.23;;;4.37;;
2107;SDS011;1060;52.492;13.388;2023-12-20T05:06:34;8.93;;;3.60;;
2107;SDS011;1060;52.492;13.388;2023-12-20T05:09:01;9.67;;;3.73;;
2107;SDS011;1060;52.492;13.388;2023-12-20T05:11:27;13.17;;;4.73;;
2107;SDS011;1060;52.492;13.388;2023-12-20T05:13:56;11.70;;;4.87;;
2107;SDS011;1060;52.492;13.388;2023-12-20T05:16:22;10.83;;;5.13;;
2107;SDS011;1060;52.492;13.388;2023-12-20T05:18:49;12.83;;;4.20;;
2107;SDS011;1060;52.492;13.388;2023-12-20T05:21:17;9.10;;;4.77;;
2107;SDS011;1060;52.492;13.388;2023-12-20T05:23:49;9.93;;;3.90;;
2107;SDS011;1060;52.492;13.388;2023-12-20T05:26:15;11.17;;;3.40;;
2107;SDS011;1060;52.492;13.388;2023-12-20T05:28:42;10.97;;;4.87;;
2107;SDS011;1060;52.492;13.388;2023-12-20T05:31:09;9.13;;;3.30;;
2107;SDS011;1060;52.492;13.388;2023-12-20T05:33:35;10.63;;;5.07;;
2107;SDS011;1060;52.492;13.388;2023-12-20T05:36:08;11.43;;;3.43;;
2107;SDS011;1060;52.492;13.388;2023-12-20T05:38:36;8.23;;;2.40;;
2107;SDS011;1060;52.492;13.388;2023-12-20T05:41:03;5.33;;;2.73;;
2107;SDS011;1060;52.492;13.388;2023-12-20T05:43:29;12.10;;;4.13;;
2107;SDS011;1060;52.492;13.388;2023-12-20T05:46:03;7.60;;;3.60;;
2107;SDS011;1060;52.492;13.388;2023-12-20T05:48:30;5.43;;;3.90;;
2107;SDS011;1060;52.492;13.388;2023-12-20T05:50:56;8.07;;;3.33;;
2107;SDS011;1060;52.492;13.388;2023-12-20T05:53:23;4.67;;;3.60;;
2107;SDS011;1060;52.492;13.388;2023-12-20T05:55:52;8.87;;;4.90;;
2107;SDS011;1060;52.492;13.388;2023-12-20T05:58:19;9.60;;;4.13;;
2107;SDS011;1060;52.492;13.388;2023-12-20T06:00:45;6.70;;;3.50;;
2107;SDS011;1060;52.492;13.388;2023-12-20T06:03:14;8.33;;;3.23;;
2107;SDS011;1060;52.492;13.388;2023-12-20T06:05:49;10.20;;;3.90;;
2107;SDS011;1060;52.492;13.388;2023-12-20T06:08:15;9.40;;;4.30;;
2107;SDS011;1060;52.492;13.388;2023-12-20T06:10:44;13.23;;;5.70;;
2107;SDS011;1060;52.492;13.388;2023-12-20T06:13:13;16.97;;;4.10;;
2107;SDS011;1060;52.492;13.388;2023-12-20T06:15:40;5.40;;;2.93;;
2107;SDS011;1060;52.492;13.388;2023-12-20T06:18:21;9.83;;;4.50;;
2107;SDS011;1060;52.492;13.388;2023-12-20T06:20:50;14.73;;;5.33;;
2107;SDS011;1060;52.492;13.388;2023-12-20T06:23:21;12.90;;;4.60;;
2107;SDS011;1060;52.492;13.388;2023-12-20T06:25:53;8.50;;;3.80;;
2107;SDS011;1060;52.492;13.388;2023-12-20T06:28:19;6.30;;;3.63;;
2107;SDS011;1060;52.492;13.388;2023-12-20T06:30:50;10.90;;;4.73;;
2107;SDS011;1060;52.492;13.388;2023-12-20T06:33:19;12.23;;;4.80;;
2107;SDS011;1060;52.492;13.388;2023-12-20T06:35:48;11.70;;;4.23;;
2107;SDS011;1060;52.492;13.388;2023-12-20T06:38:17;7.40;;;4.87;;
2107;SDS011;1060;52.492;13.388;2023-12-20T06:40:53;7.40;;;3.73;;
2107;SDS011;1060;52.492;13.388;2023-12-20T06:43:20;8.53;;;3.57;;
2107;SDS011;1060;52.492;13.388;2023-12-20T06:45:49;8.93;;;4.07;;
2107;SDS011;1060;52.492;13.388;2023-12-20T06:48:16;7.83;;;4.30;;
2107;SDS011;1060;52.492;13.388;2023-12-20T06:50:42;8.20;;;5.17;;
2107;SDS011;1060;52.492;13.388;2023-12-20T06:53:09;11.53;;;4.73;;
2107;SDS011;1060;52.492;13.388;2023-12-20T06:55:35;6.30;;;4.37;;
2107;SDS011;1060;52.492;13.388;2023-12-20T06:58:03;16.30;;;4.57;;
2107;SDS011;1060;52.492;13.388;2023-12-20T07:00:30;12.77;;;5.00;;
2107;SDS011;1060;52.492;13.388;2023-12-20T07:02:59;10.70;;;4.47;;
2107;SDS011;1060;52.492;13.388;2023-12-20T07:05:25;11.53;;;5.83;;
2107;SDS011;1060;52.492;13.388;2023-12-20T07:07:52;6.70;;;4.40;;
2107;SDS011;1060;52.492;13.388;2023-12-20T07:10:25;9.73;;;4.33;;
2107;SDS011;1060;52.492;13.388;2023-12-20T07:12:51;8.63;;;4.47;;
2107;SDS011;1060;52.492;13.388;2023-12-20T07:15:21;6.60;;;4.50;;
2107;SDS011;1060;52.492;13.388;2023-12-20T07:17:47;8.73;;;4.53;;
2107;SDS011;1060;52.492;13.388;2023-12-20T07:20:16;8.40;;;4.43;;
2107;SDS011;1060;52.492;13.388;2023-12-20T07:22:48;8.00;;;5.30;;
2107;SDS011;1060;52.492;13.388;2023-12-20T07:25:18;7.17;;;5.10;;
2107;SDS011;1060;52.492;13.388;2023-12-20T07:27:45;9.13;;;4.43;;
2107;SDS011;1060;52.492;13.388;2023-12-20T07:30:15;9.30;;;4.00;;
2107;SDS011;1060;52.492;13.388;2023-12-20T07:32:44;15.13;;;4.30;;
2107;SDS011;1060;52.492;13.388;2023-12-20T07:35:16;13.27;;;4.27;;
2107;SDS011;1060;52.492;13.388;2023-12-20T07:37:56;14.87;;;4.43;;
2107;SDS011;1060;52.492;13.388;2023-12-20T07:40:35;12.30;;;4.60;;
2107;SDS011;1060;52.492;13.388;2023-12-20T07:43:16;8.73;;;4.67;;
2107;SDS011;1060;52.492;13.388;2023-12-20T07:46:06;5.87;;;3.83;;
2107;SDS011;1060;52.492;13.388;2023-12-20T07:49:03;9.07;;;4.50;;
2107;SDS011;1060;52.492;13.388;2023-12-20T07:55:05;11.03;;;4.23;;
2107;SDS011;1060;52.492;13.388;2023-12-20T07:57:51;15.30;;;3.70;;
2107;SDS011;1060;52.492;13.388;2023-12-20T08:00:47;10.37;;;3.97;;
2107;SDS011;1060;52.492;13.388;2023-12-20T08:03:23;11.20;;;3.60;;
2107;SDS011;1060;52.492;13.388;2023-12-20T08:05:55;6.60;;;4.37;;
2107;SDS011;1060;52.492;13.388;2023-12-20T08:08:27;8.83;;;3.77;;
2107;SDS011;1060;52.492;13.388;2023-12-20T08:11:19;9.43;;;5.87;;
2107;SDS011;1060;52.492;13.388;2023-12-20T08:13:46;10.03;;;4.50;;
2107;SDS011;1060;52.492;13.388;2023-12-20T08:16:12;14.63;;;5.50;;
2107;SDS011;1060;52.492;13.388;2023-12-20T08:18:43;8.50;;;5.13;;
2107;SDS011;1060;52.492;13.388;2023-12-20T08:21:13;11.80;;;4.73;;
2107;SDS011;1060;52.492;13.388;2023-12-20T08:23:42;3.50;;;3.20;;
2107;SDS011;1060;52.492;13.388;2023-12-20T08:26:20;7.97;;;5.77;;
2107;SDS011;1060;52.492;13.388;2023-12-20T08:28:57;10.57;;;6.23;;
2107;SDS011;1060;52.492;13.388;2023-12-20T08:34:38;10.67;;;5.10;;
2107;SDS011;1060;52.492;13.388;2023-12-20T08:40:58;8.10;;;3.77;;
2107;SDS011;1060;52.492;13.388;2023-12-20T08:44:18;5.73;;;3.90;;
2107;SDS011;1060;52.492;13.388;2023-12-20T08:49:29;7.00;;;3.07;;
2107;SDS011;1060;52.492;13.388;2023-12-20T08:52:07;5.50;;;2.80;;
2107;SDS011;1060;52.492;13.388;2023-12-20T09:14:18;10.73;;;5.83;;
2107;SDS011;1060;52.492;13.388;2023-12-20T09:25:12;3.73;;;2.33;;
2107;SDS011;1060;52.492;13.388;2023-12-20T09:41:49;9.17;;;3.87;;
2107;SDS011;1060;52.492;13.388;2023-12-20T09:44:33;12.87;;;4.17;;
2107;SDS011;1060;52.492;13.388;2023-12-20T09:47:14;5.60;;;2.10;;
2107;SDS011;1060;52.492;13.388;2023-12-20T09:50:12;7.43;;;2.90;;
2107;SDS011;1060;52.492;13.388;2023-12-20T09:52:49;6.57;;;4.40;;
2107;SDS011;1060;52.492;13.388;2023-12-20T12:49:46;7.60;;;3.70;;
2107;SDS011;1060;52.492;13.388;2023-12-20T12:52:28;9.20;;;4.00;;
2107;SDS011;1060;52.492;13.388;2023-12-20T12:59:38;7.50;;;3.90;;
2107;SDS011;1060;52.492;13.388;2023-12-20T13:14:06;6.43;;;4.40;;
2107;SDS011;1060;52.492;13.388;2023-12-20T13:23:05;30.30;;;8.40;;
2107;SDS011;1060;52.492;13.388;2023-12-20T14:22:38;3.80;;;3.53;;
2107;SDS011;1060;52.492;13.388;2023-12-20T14:25:35;5.93;;;2.73;;
2107;SDS011;1060;52.492;13.388;2023-12-20T14:34:43;3.60;;;1.60;;
2107;SDS011;1060;52.492;13.388;2023-12-20T14:37:47;3.97;;;1.83;;
2107;SDS011;1060;52.492;13.388;2023-12-20T14:40:53;5.47;;;1.83;;
2107;SDS011;1060;52.492;13.388;2023-12-20T14:43:41;5.73;;;2.03;;
2107;SDS011;1060;52.492;13.388;2023-12-20T14:49:57;2.80;;;2.20;;
2107;SDS011;1060;52.492;13.388;2023-12-20T15:02:54;6.23;;;3.70;;
2107;SDS011;1060;52.492;13.388;2023-12-20T15:05:35;4.80;;;3.17;;
2107;SDS011;1060;52.492;13.388;2023-12-20T15:08:17;5.00;;;2.20;;
2107;SDS011;1060;52.492;13.388;2023-12-20T15:11:05;3.87;;;3.57;;
2107;SDS011;1060;52.492;13.388;2023-12-20T15:30:37;3.67;;;3.33;;
2107;SDS011;1060;52.492;13.388;2023-12-20T15:45:29;4.27;;;2.33;;
2107;SDS011;1060;52.492;13.388;2023-12-20T15:48:26;2.07;;;1.70;;
2107;SDS011;1060;52.492;13.388;2023-12-20T15:58:17;4.73;;;2.70;;
2107;SDS011;1060;52.492;13.388;2023-12-20T16:00:16;6.43;;;2.47;;
2107;SDS011;1060;52.492;13.388;2023-12-20T16:12:41;3.25;;;2.40;;
2107;SDS011;1060;52.492;13.388;2023-12-20T16:15:30;4.43;;;3.30;;
2107;SDS011;1060;52.492;13.388;2023-12-20T16:17:56;6.63;;;3.07;;
2107;SDS011;1060;52.492;13.388;2023-12-20T16:20:23;4.35;;;3.08;;
2107;SDS011;1060;52.492;13.388;2023-12-20T16:22:52;5.90;;;4.67;;
2107;SDS011;1060;52.492;13.388;2023-12-20T17:14:22;12.50;;;4.77;;
2107;SDS011;1060;52.492;13.388;2023-12-20T17:16:58;6.72;;;3.13;;
2107;SDS011;1060;52.492;13.388;2023-12-20T17:19:26;16.03;;;4.47;;
2107;SDS011;1060;52.492;13.388;2023-12-20T17:24:42;5.47;;;3.23;;
2107;SDS011;1060;52.492;13.388;2023-12-20T17:27:11;5.90;;;4.83;;
2107;SDS011;1060;52.492;13.388;2023-12-20T17:29:53;12.37;;;3.93;;
2107;SDS011;1060;52.492;13.388;2023-12-20T17:32:28;14.80;;;6.10;;
2107;SDS011;1060;52.492;13.388;2023-12-20T17:35:08;6.30;;;3.83;;
2107;SDS011;1060;52.492;13.388;2023-12-20T17:37:41;9.70;;;6.13;;
2107;SDS011;1060;52.492;13.388;2023-12-20T17:40:23;15.13;;;4.97;;
2107;SDS011;1060;52.492;13.388;2023-12-20T17:42:54;15.40;;;6.93;;
2107;SDS011;1060;52.492;13.388;2023-12-20T17:45:21;4.70;;;3.60;;
2107;SDS011;1060;52.492;13.388;2023-12-20T17:47:50;9.13;;;4.40;;
2107;SDS011;1060;52.492;13.388;2023-12-20T17:51:34;6.83;;;4.10;;
2107;SDS011;1060;52.492;13.388;2023-12-20T18:05:43;10.83;;;4.80;;
2107;SDS011;1060;52.492;13.388;2023-12-20T18:08:12;5.60;;;4.53;;
2107;SDS011;1060;52.492;13.388;2023-12-20T18:10:51;7.50;;;3.40;;
2107;SDS011;1060;52.492;13.388;2023-12-20T18:13:17;13.90;;;4.47;;
2107;SDS011;1060;52.492;13.388;2023-12-20T18:16:08;12.83;;;6.00;;
2107;SDS011;1060;52.492;13.388;2023-12-20T18:37:34;14.00;;;4.30;;
2107;SDS011;1060;52.492;13.388;2023-12-20T21:52:11;5.30;;;4.20;;
2107;SDS011;1060;52.492;13.388;2023-12-20T21:54:37;7.55;;;2.72;;
2107;SDS011;1060;52.492;13.388;2023-12-20T21:57:06;2.70;;;2.50;;
2107;SDS011;1060;52.492;13.388;2023-12-20T21:59:43;4.70;;;2.87;;
2107;SDS011;1060;52.492;13.388;2023-12-20T22:02:09;3.40;;;2.97;;
